Hauptseite
METAR-TAF:

METAR-TAF

Flughäfen :

Militärflugplatz Nancy-Ochey

Nancy, Frankreich

Breite: 48-35N, Länge: 005-58E, Höhe: 336 m

Beobachtung

Neuester Wetterbericht von vor 23 Minuten, um 19:00 UTC
Wind 3 kt aus Südwest
Temperatur 22°C
Luftfeuchtigkeit 65%
Luftdruck 1020 hPa
Sichtweite 10 km oder mehr
keine Wolken unter 1500 m und keine Kumulonimbus oder Gewitterwolken

METAR: LFSO 191900Z AUTO 23003KT CAVOK 22/15 Q1020

Zeit: 21:23 (19:23 UTC)

Prognose

Neuester Wetterbericht von vor 5 Stunden und 23 Minuten, um 14:00 UTC
Gültige Prognose vom 19 um 15 UTC bis 20 um 15 UTC
Wind 12 kt aus Südwest
Sichtweite 10 km oder mehr
keine Wolken unter 1500 m und keine Kumulonimbus oder Gewitterwolken
Zeitweise
vom 19 um 21 UTC bis 20 um 07 UTC
Wind 2 kt aus unterschiedlichen Richtungen

TAF: LFSO 191400Z 1915/2015 22012KT CAVOK TEMPO 1921/2007 VRB02KT

Wetterbeobachtungen und Prognosen von mehr als 4000 Flughäfen (METAR und TAF Bericht).

Die verfügbaren Stationen werden durch gelbe und rote Markierungen auf der Karte dargestellt.

Führen Sie die Maus auf sie, um den Namen der Station zu sehen.

Darauf klicken, um die Beobachtung von Wetterbeobachtungen und Prognosen zu sehen.

Um die Karte zu ändern : klicken Sie auf den grünen Tasten mit einem schwarzen Kreuz Zum Vergrößern, auf den grünen Button mit einem Gedankenstrich zu verkleinern, oder auf die grünen Pfeile für benachbarte Karten.


METAR-TAF: